createdAt,value
2022-11-27T00:01:21.549Z,1030.47
2022-11-27T00:03:21.895Z,1030.40
2022-11-27T00:05:21.569Z,1030.35
2022-11-27T00:07:21.630Z,1030.35
2022-11-27T00:09:21.514Z,1030.26
2022-11-27T00:11:21.547Z,1030.25
2022-11-27T00:13:21.529Z,1030.23
2022-11-27T00:15:21.577Z,1030.16
2022-11-27T00:17:21.539Z,1030.16
2022-11-27T00:19:21.537Z,1030.15
2022-11-27T00:21:21.516Z,1030.16
2022-11-27T00:23:21.496Z,1030.17
2022-11-27T00:25:21.525Z,1030.17
2022-11-27T00:27:21.542Z,1030.18
2022-11-27T00:29:21.513Z,1030.19
2022-11-27T00:31:21.618Z,1030.11
2022-11-27T00:33:21.570Z,1030.11
2022-11-27T00:35:21.526Z,1030.11
2022-11-27T00:37:21.509Z,1030.03
2022-11-27T00:39:21.528Z,1029.97
2022-11-27T00:41:21.606Z,1029.87
2022-11-27T00:43:21.681Z,1029.87
2022-11-27T00:45:21.550Z,1029.87
2022-11-27T00:47:21.564Z,1029.87
2022-11-27T00:49:21.619Z,1029.78
2022-11-27T00:51:21.535Z,1029.78
2022-11-27T00:53:21.676Z,1029.78
2022-11-27T00:55:21.540Z,1029.78
2022-11-27T00:57:21.524Z,1029.82
2022-11-27T00:59:21.520Z,1029.78
2022-11-27T01:01:21.610Z,1029.76
2022-11-27T01:03:21.542Z,1029.76
2022-11-27T01:05:21.559Z,1029.74
2022-11-27T01:07:21.713Z,1029.71
2022-11-27T01:09:21.639Z,1029.69
2022-11-27T01:11:21.526Z,1029.67
2022-11-27T01:13:21.648Z,1029.67
2022-11-27T01:15:21.557Z,1029.67
2022-11-27T01:17:21.553Z,1029.58
2022-11-27T01:19:21.564Z,1029.48
2022-11-27T01:21:21.592Z,1029.48
2022-11-27T01:23:21.505Z,1029.43
2022-11-27T01:25:26.629Z,1029.37
2022-11-27T01:27:51.542Z,1029.40
2022-11-27T01:29:51.585Z,1029.42
2022-11-27T01:31:51.557Z,1029.39
2022-11-27T01:33:51.587Z,1029.38
2022-11-27T01:35:51.590Z,1029.38
2022-11-27T01:37:51.634Z,1029.35
2022-11-27T01:39:51.554Z,1029.34
2022-11-27T01:41:51.600Z,1029.32
2022-11-27T01:43:51.552Z,1029.27
2022-11-27T01:45:51.573Z,1029.27
2022-11-27T01:47:51.614Z,1029.24
2022-11-27T01:49:51.593Z,1029.22
2022-11-27T01:51:51.582Z,1029.22
2022-11-27T01:53:51.547Z,1029.22
2022-11-27T01:55:51.663Z,1029.22
2022-11-27T01:57:51.557Z,1029.13
2022-11-27T01:59:51.582Z,1029.09
2022-11-27T02:01:51.744Z,1029.01
2022-11-27T02:03:51.580Z,1029.01
2022-11-27T02:05:51.676Z,1028.96
2022-11-27T02:07:51.666Z,1028.92
2022-11-27T02:09:51.653Z,1028.80
2022-11-27T02:11:51.578Z,1028.76
2022-11-27T02:13:51.662Z,1028.76
2022-11-27T02:15:51.638Z,1028.64
2022-11-27T02:17:51.670Z,1028.59
2022-11-27T02:19:51.601Z,1028.59
2022-11-27T02:21:51.550Z,1028.59
2022-11-27T02:23:51.607Z,1028.55
2022-11-27T02:25:51.611Z,1028.54
2022-11-27T02:27:51.718Z,1028.52
2022-11-27T02:29:51.561Z,1028.51
2022-11-27T02:31:51.617Z,1028.51
2022-11-27T02:33:51.575Z,1028.48
2022-11-27T02:35:51.685Z,1028.48
2022-11-27T02:37:51.612Z,1028.38
2022-11-27T02:39:51.582Z,1028.37
2022-11-27T02:41:51.559Z,1028.37
2022-11-27T02:43:51.603Z,1028.29
2022-11-27T02:45:51.567Z,1028.29
2022-11-27T02:47:51.631Z,1028.32
2022-11-27T02:49:51.589Z,1028.34
2022-11-27T02:51:51.571Z,1028.34
2022-11-27T02:53:51.589Z,1028.29
2022-11-27T02:55:51.682Z,1028.25
2022-11-27T02:57:51.602Z,1028.24
2022-11-27T02:59:51.813Z,1028.24
2022-11-27T03:01:51.839Z,1028.28
2022-11-27T03:03:51.766Z,1028.26
2022-11-27T03:05:51.654Z,1028.21
2022-11-27T03:07:51.674Z,1028.20
2022-11-27T03:09:51.602Z,1028.20
2022-11-27T03:11:51.558Z,1028.14
2022-11-27T03:13:51.601Z,1028.13
2022-11-27T03:15:51.626Z,1028.13
2022-11-27T03:17:51.803Z,1028.20
2022-11-27T03:19:51.605Z,1028.20
2022-11-27T03:21:51.583Z,1028.13
2022-11-27T03:24:21.582Z,1028.08
2022-11-27T03:26:21.600Z,1028.08
2022-11-27T03:28:21.614Z,1028.08
2022-11-27T03:30:21.643Z,1028.11
2022-11-27T03:32:21.622Z,1028.04
2022-11-27T03:34:21.582Z,1028.05
2022-11-27T03:36:21.572Z,1028.03
2022-11-27T03:38:21.599Z,1028.03
2022-11-27T03:40:21.640Z,1028.05
2022-11-27T03:42:21.610Z,1028.08
2022-11-27T03:44:21.642Z,1028.10
2022-11-27T03:46:21.745Z,1028.14
2022-11-27T03:48:21.702Z,1028.14
2022-11-27T03:50:21.738Z,1028.14
2022-11-27T03:52:21.758Z,1028.15
2022-11-27T03:54:21.766Z,1028.15
2022-11-27T03:56:21.646Z,1028.15
2022-11-27T03:58:21.651Z,1028.15
2022-11-27T04:00:21.621Z,1028.16
2022-11-27T04:02:21.645Z,1028.14
2022-11-27T04:04:21.782Z,1028.07
2022-11-27T04:06:21.635Z,1028.07
2022-11-27T04:08:21.611Z,1028.05
2022-11-27T04:10:21.750Z,1028.01
2022-11-27T04:12:21.652Z,1028.00
2022-11-27T04:14:21.620Z,1027.97
2022-11-27T04:16:21.681Z,1027.97
2022-11-27T04:18:21.646Z,1028.05
2022-11-27T04:20:21.674Z,1028.07
2022-11-27T04:22:21.661Z,1028.10
2022-11-27T04:24:21.634Z,1028.10
2022-11-27T04:26:21.624Z,1028.11
2022-11-27T04:28:21.683Z,1028.11
2022-11-27T04:30:21.663Z,1028.10
2022-11-27T04:32:21.618Z,1028.09
2022-11-27T04:34:21.633Z,1028.09
2022-11-27T04:36:21.645Z,1028.14
2022-11-27T04:38:21.763Z,1028.14
2022-11-27T04:40:21.630Z,1028.17
2022-11-27T04:42:21.630Z,1028.20
2022-11-27T04:44:21.623Z,1028.20
2022-11-27T04:46:21.685Z,1028.24
2022-11-27T04:48:21.701Z,1028.19
2022-11-27T04:50:21.632Z,1028.20
2022-11-27T04:52:21.672Z,1028.20
2022-11-27T04:54:21.673Z,1028.22
2022-11-27T04:56:21.643Z,1028.20
2022-11-27T04:58:21.649Z,1028.26
2022-11-27T05:00:21.652Z,1028.22
2022-11-27T05:02:21.746Z,1028.22
2022-11-27T05:04:21.657Z,1028.13
2022-11-27T05:06:21.623Z,1028.15
2022-11-27T05:08:21.651Z,1028.15
2022-11-27T05:10:21.636Z,1028.17
2022-11-27T05:12:21.678Z,1028.17
2022-11-27T05:14:21.692Z,1028.21
2022-11-27T05:16:21.723Z,1028.23
2022-11-27T05:18:21.626Z,1028.23
2022-11-27T05:20:51.667Z,1028.14
2022-11-27T05:22:51.834Z,1028.07
2022-11-27T05:24:51.691Z,1028.07
2022-11-27T05:26:51.692Z,1028.01
2022-11-27T05:28:51.683Z,1028.00
2022-11-27T05:30:51.650Z,1027.89
2022-11-27T05:32:51.685Z,1027.82
2022-11-27T05:34:51.643Z,1027.82
2022-11-27T05:36:51.765Z,1027.78
2022-11-27T05:38:51.647Z,1027.75
2022-11-27T05:40:51.674Z,1027.72
2022-11-27T05:42:51.640Z,1027.72
2022-11-27T05:44:56.661Z,1027.72
2022-11-27T05:46:51.710Z,1027.78
2022-11-27T05:48:51.757Z,1027.77
2022-11-27T05:50:51.774Z,1027.72
2022-11-27T05:52:51.636Z,1027.72
2022-11-27T05:54:51.649Z,1027.75
2022-11-27T05:56:51.740Z,1027.72
2022-11-27T05:58:51.739Z,1027.72
2022-11-27T06:00:51.799Z,1027.65
2022-11-27T06:02:51.821Z,1027.65
2022-11-27T06:04:51.676Z,1027.54
2022-11-27T06:06:51.681Z,1027.58
2022-11-27T06:08:51.667Z,1027.59
2022-11-27T06:10:51.708Z,1027.62
2022-11-27T06:12:51.709Z,1027.62
2022-11-27T06:14:51.736Z,1027.63
2022-11-27T06:16:51.744Z,1027.63
2022-11-27T06:18:51.766Z,1027.66
2022-11-27T06:20:52.988Z,1027.67
2022-11-27T06:22:51.653Z,1027.67
2022-11-27T06:24:51.732Z,1027.60
2022-11-27T06:26:51.750Z,1027.49
2022-11-27T06:29:09.951Z,1027.46
2022-11-27T06:31:14.465Z,1027.46
2022-11-27T06:33:09.972Z,1027.45
2022-11-27T06:35:09.938Z,1027.41
2022-11-27T06:37:13.186Z,1027.40
2022-11-27T06:39:09.964Z,1027.40
2022-11-27T06:41:10.048Z,1027.40
2022-11-27T06:43:09.976Z,1027.39
2022-11-27T06:45:09.966Z,1027.37
2022-11-27T06:47:09.986Z,1027.34
2022-11-27T06:49:09.969Z,1027.36
2022-11-27T06:51:09.953Z,1027.36
2022-11-27T06:53:10.074Z,1027.28
2022-11-27T06:55:10.023Z,1027.28
2022-11-27T06:57:10.070Z,1027.33
2022-11-27T06:59:09.974Z,1027.33
2022-11-27T07:01:10.169Z,1027.34
2022-11-27T07:03:10.094Z,1027.35
2022-11-27T07:05:09.943Z,1027.37
2022-11-27T07:07:09.943Z,1027.35
2022-11-27T07:09:09.992Z,1027.35
2022-11-27T07:11:09.957Z,1027.25
2022-11-27T07:13:09.956Z,1027.30
2022-11-27T07:15:10.114Z,1027.33
2022-11-27T07:17:09.966Z,1027.39
2022-11-27T07:19:10.057Z,1027.39
2022-11-27T07:21:09.970Z,1027.39
2022-11-27T07:23:10.033Z,1027.38
2022-11-27T07:25:10.016Z,1027.39
2022-11-27T07:27:10.001Z,1027.39
2022-11-27T07:29:09.949Z,1027.38
2022-11-27T07:31:10.072Z,1027.37
2022-11-27T07:33:10.018Z,1027.40
2022-11-27T07:35:10.018Z,1027.37
2022-11-27T07:37:09.967Z,1027.37
2022-11-27T07:39:10.008Z,1027.30
2022-11-27T07:41:09.961Z,1027.28
2022-11-27T07:43:10.007Z,1027.21
2022-11-27T07:45:09.955Z,1027.19
2022-11-27T07:47:09.988Z,1027.19
2022-11-27T07:49:10.041Z,1027.19
2022-11-27T07:51:10.012Z,1027.14
2022-11-27T07:53:09.965Z,1027.19
2022-11-27T07:55:09.999Z,1027.19
2022-11-27T07:57:09.993Z,1027.15
2022-11-27T07:59:10.029Z,1027.12
2022-11-27T08:01:10.219Z,1027.12
2022-11-27T08:03:10.007Z,1027.15
2022-11-27T08:05:13.079Z,1027.15
2022-11-27T08:09:10.105Z,1027.22
2022-11-27T08:11:10.023Z,1027.19
2022-11-27T08:13:09.983Z,1027.20
2022-11-27T08:15:10.021Z,1027.20
2022-11-27T08:17:09.963Z,1027.09
2022-11-27T08:19:10.017Z,1026.98
2022-11-27T08:21:40.102Z,1026.92
2022-11-27T08:23:40.085Z,1026.87
2022-11-27T08:25:40.092Z,1026.87
2022-11-27T08:27:39.995Z,1026.84
2022-11-27T08:29:40.130Z,1026.82
2022-11-27T08:31:40.091Z,1026.80
2022-11-27T08:33:39.989Z,1026.80
2022-11-27T08:35:40.034Z,1026.79
2022-11-27T08:37:40.111Z,1026.77
2022-11-27T08:39:40.105Z,1026.76
2022-11-27T08:41:40.061Z,1026.76
2022-11-27T08:43:40.112Z,1026.76
2022-11-27T08:45:40.090Z,1026.80
2022-11-27T08:47:40.048Z,1026.86
2022-11-27T08:49:44.902Z,1026.84
2022-11-27T08:51:40.080Z,1026.81
2022-11-27T08:53:40.150Z,1026.81
2022-11-27T08:55:40.110Z,1026.81
2022-11-27T08:57:40.081Z,1026.78
2022-11-27T08:59:40.034Z,1026.73
2022-11-27T09:01:40.150Z,1026.73
2022-11-27T09:03:40.171Z,1026.66
2022-11-27T09:05:40.105Z,1026.66
2022-11-27T09:07:40.074Z,1026.61
2022-11-27T09:09:40.009Z,1026.61
2022-11-27T09:11:40.072Z,1026.61
2022-11-27T09:13:40.031Z,1026.63
2022-11-27T09:15:40.177Z,1026.68
2022-11-27T09:17:40.004Z,1026.64
2022-11-27T09:19:40.112Z,1026.58
2022-11-27T09:21:40.102Z,1026.58
2022-11-27T09:23:40.149Z,1026.58
2022-11-27T09:25:40.138Z,1026.45
2022-11-27T09:27:40.016Z,1026.57
2022-11-27T09:29:40.188Z,1026.57
2022-11-27T09:31:40.079Z,1026.55
2022-11-27T09:33:40.012Z,1026.50
2022-11-27T09:35:40.109Z,1026.58
2022-11-27T09:37:40.126Z,1026.55
2022-11-27T09:39:40.261Z,1026.55
2022-11-27T09:41:40.151Z,1026.52
2022-11-27T09:43:40.080Z,1026.53
2022-11-27T09:45:40.087Z,1026.56
2022-11-27T09:47:41.621Z,1026.54
2022-11-27T09:49:40.103Z,1026.54
2022-11-27T09:51:40.219Z,1026.43
2022-11-27T09:53:40.148Z,1026.36
2022-11-27T09:55:40.060Z,1026.21
2022-11-27T09:57:40.169Z,1026.21
2022-11-27T09:59:40.106Z,1026.20
2022-11-27T10:01:46.381Z,1026.15
2022-11-27T10:03:40.112Z,1026.15
2022-11-27T10:05:40.147Z,1026.15
2022-11-27T10:07:40.122Z,1026.15
2022-11-27T10:09:40.044Z,1026.05
2022-11-27T10:11:40.194Z,1026.07
2022-11-27T10:13:40.131Z,1026.07
2022-11-27T10:15:41.114Z,1026.05
2022-11-27T10:18:10.059Z,1025.97
2022-11-27T10:20:10.167Z,1025.91
2022-11-27T10:22:10.180Z,1025.91
2022-11-27T10:24:10.088Z,1025.94
2022-11-27T10:26:10.189Z,1025.85
2022-11-27T10:28:10.137Z,1025.76
2022-11-27T10:30:10.107Z,1025.76
2022-11-27T10:32:22.119Z,1025.64
2022-11-27T10:34:10.441Z,1025.57
2022-11-27T10:36:10.160Z,1025.63
2022-11-27T10:38:10.213Z,1025.66
2022-11-27T10:40:10.193Z,1025.66
2022-11-27T10:42:11.220Z,1025.63
2022-11-27T10:44:10.147Z,1025.63
2022-11-27T10:46:10.267Z,1025.61
2022-11-27T10:48:10.173Z,1025.60
2022-11-27T10:50:10.180Z,1025.60
2022-11-27T10:52:10.182Z,1025.52
2022-11-27T10:54:10.129Z,1025.44
2022-11-27T10:56:10.194Z,1025.48
2022-11-27T10:58:10.087Z,1025.48
2022-11-27T11:00:10.086Z,1025.47
2022-11-27T11:02:10.230Z,1025.41
2022-11-27T11:04:24.683Z,1025.37
2022-11-27T11:06:20.484Z,1025.46
2022-11-27T11:08:10.086Z,1025.46
2022-11-27T11:10:10.133Z,1025.50
2022-11-27T11:12:10.183Z,1025.42
2022-11-27T11:14:11.145Z,1025.36
2022-11-27T11:16:14.519Z,1025.44
2022-11-27T11:18:10.133Z,1025.44
2022-11-27T11:20:10.138Z,1025.27
2022-11-27T11:22:13.295Z,1025.25
2022-11-27T11:24:10.179Z,1025.25
2022-11-27T11:26:10.229Z,1025.20
2022-11-27T11:28:10.103Z,1025.20
2022-11-27T11:30:10.096Z,1025.16
2022-11-27T11:32:10.301Z,1025.13
2022-11-27T11:34:10.195Z,1025.08
2022-11-27T11:36:10.331Z,1025.08
2022-11-27T11:38:10.194Z,1024.96
2022-11-27T11:40:14.764Z,1025.02
2022-11-27T11:42:10.233Z,1024.97
2022-11-27T11:44:10.248Z,1024.98
2022-11-27T11:46:12.477Z,1024.98
2022-11-27T11:48:10.186Z,1024.87
2022-11-27T11:50:10.123Z,1024.84
2022-11-27T11:52:10.137Z,1024.79
2022-11-27T11:54:10.154Z,1024.74
2022-11-27T11:56:10.153Z,1024.74
2022-11-27T11:58:11.134Z,1024.76
2022-11-27T12:00:11.138Z,1024.71
2022-11-27T12:02:10.216Z,1024.64
2022-11-27T12:04:10.239Z,1024.64
2022-11-27T12:06:10.199Z,1024.64
2022-11-27T12:08:10.258Z,1024.60
2022-11-27T12:10:10.224Z,1024.59
2022-11-27T12:12:10.223Z,1024.52
2022-11-27T12:14:10.233Z,1024.52
2022-11-27T12:16:10.314Z,1024.41
2022-11-27T12:18:10.179Z,1024.33
2022-11-27T12:20:40.159Z,1024.30
2022-11-27T12:22:40.249Z,1024.33
2022-11-27T12:24:40.370Z,1024.33
2022-11-27T12:26:40.151Z,1024.28
2022-11-27T12:28:40.191Z,1024.30
2022-11-27T12:30:40.155Z,1024.20
2022-11-27T12:32:40.147Z,1024.20
2022-11-27T12:34:40.647Z,1024.08
2022-11-27T12:36:40.229Z,1024.06
2022-11-27T12:38:40.156Z,1024.04
2022-11-27T12:40:40.235Z,1024.02
2022-11-27T12:42:40.141Z,1024.02
2022-11-27T12:44:40.467Z,1023.97
2022-11-27T12:46:40.144Z,1023.97
2022-11-27T12:48:40.303Z,1023.85
2022-11-27T12:50:40.188Z,1023.89
2022-11-27T12:52:41.259Z,1023.89
2022-11-27T12:54:40.455Z,1023.75
2022-11-27T12:56:40.253Z,1023.65
2022-11-27T12:58:40.327Z,1023.55
2022-11-27T13:00:40.160Z,1023.55
2022-11-27T13:02:40.297Z,1023.53
2022-11-27T13:04:40.374Z,1023.57
2022-11-27T13:06:40.187Z,1023.53
2022-11-27T13:08:40.218Z,1023.56
2022-11-27T13:10:40.296Z,1023.56
2022-11-27T13:12:40.252Z,1023.54
2022-11-27T13:14:40.699Z,1023.53
2022-11-27T13:16:40.306Z,1023.42
2022-11-27T13:18:40.304Z,1023.41
2022-11-27T13:20:40.339Z,1023.41
2022-11-27T13:22:41.031Z,1023.47
2022-11-27T13:24:40.437Z,1023.58
2022-11-27T13:26:52.239Z,1023.58
2022-11-27T13:28:52.225Z,1023.66
2022-11-27T13:30:52.272Z,1023.67
2022-11-27T13:32:52.301Z,1023.67
2022-11-27T13:34:52.309Z,1023.66
2022-11-27T13:36:52.203Z,1023.69
2022-11-27T13:38:52.253Z,1023.67
2022-11-27T13:40:52.313Z,1023.71
2022-11-27T13:42:52.260Z,1023.71
2022-11-27T13:44:52.285Z,1023.63
2022-11-27T13:46:52.188Z,1023.58
2022-11-27T13:48:52.390Z,1023.53
2022-11-27T13:50:52.215Z,1023.41
2022-11-27T13:52:52.249Z,1023.41
2022-11-27T13:54:52.280Z,1023.33
2022-11-27T13:56:52.272Z,1023.29
2022-11-27T13:58:52.223Z,1023.28
2022-11-27T14:00:52.233Z,1023.28
2022-11-27T14:02:52.288Z,1023.31
2022-11-27T14:04:55.806Z,1023.31
2022-11-27T14:06:52.294Z,1023.31
2022-11-27T14:08:52.245Z,1023.31
2022-11-27T14:10:53.321Z,1023.31
2022-11-27T14:12:52.316Z,1023.34
2022-11-27T14:14:52.280Z,1023.31
2022-11-27T14:16:52.320Z,1023.25
2022-11-27T14:18:52.237Z,1023.22
2022-11-27T14:20:52.203Z,1023.22
2022-11-27T14:23:11.003Z,1023.21
2022-11-27T14:24:52.196Z,1023.20
2022-11-27T14:26:52.427Z,1023.16
2022-11-27T14:28:52.257Z,1023.14
2022-11-27T14:30:54.228Z,1023.14
2022-11-27T14:32:52.254Z,1023.06
2022-11-27T14:34:52.373Z,1023.01
2022-11-27T14:36:52.261Z,1023.00
2022-11-27T14:38:52.288Z,1023.00
2022-11-27T14:40:52.268Z,1023.01
2022-11-27T14:42:52.310Z,1023.01
2022-11-27T14:44:52.306Z,1023.01
2022-11-27T14:46:52.403Z,1023.01
2022-11-27T14:48:52.221Z,1023.01
2022-11-27T14:50:52.247Z,1022.97
2022-11-27T14:52:52.244Z,1022.98
2022-11-27T14:54:52.286Z,1022.95
2022-11-27T14:56:52.265Z,1022.92
2022-11-27T14:58:52.328Z,1022.92
2022-11-27T15:01:22.360Z,1022.91
2022-11-27T15:03:22.424Z,1022.87
2022-11-27T15:05:22.293Z,1022.83
2022-11-27T15:07:22.317Z,1022.83
2022-11-27T15:09:31.782Z,1022.75
2022-11-27T15:11:54.126Z,1022.73
2022-11-27T15:13:22.319Z,1022.72
2022-11-27T15:15:22.370Z,1022.67
2022-11-27T15:17:22.333Z,1022.67
2022-11-27T15:19:22.314Z,1022.59
2022-11-27T15:21:22.250Z,1022.54
2022-11-27T15:23:22.289Z,1022.39
2022-11-27T15:25:22.234Z,1022.35
2022-11-27T15:27:22.382Z,1022.35
2022-11-27T15:29:23.390Z,1022.35
2022-11-27T15:31:22.366Z,1022.22
2022-11-27T15:33:22.378Z,1022.18
2022-11-27T15:35:22.288Z,1022.18
2022-11-27T15:37:22.335Z,1022.09
2022-11-27T15:39:22.357Z,1021.98
2022-11-27T15:41:22.377Z,1021.88
2022-11-27T15:43:22.271Z,1021.86
2022-11-27T15:45:22.454Z,1021.86
2022-11-27T15:47:22.381Z,1021.77
2022-11-27T15:49:24.283Z,1021.70
2022-11-27T15:51:22.294Z,1021.59
2022-11-27T15:55:22.300Z,1021.53
2022-11-27T15:57:22.271Z,1021.52
2022-11-27T15:59:22.282Z,1021.49
2022-11-27T16:01:22.516Z,1021.47
2022-11-27T16:03:22.362Z,1021.47
2022-11-27T16:05:22.267Z,1021.40
2022-11-27T16:07:22.380Z,1021.34
2022-11-27T16:09:22.338Z,1021.34
2022-11-27T16:11:22.376Z,1021.31
2022-11-27T16:13:22.377Z,1021.31
2022-11-27T16:15:23.329Z,1021.29
2022-11-27T16:17:22.258Z,1021.29
2022-11-27T16:19:23.350Z,1021.30
2022-11-27T16:21:27.983Z,1021.27
2022-11-27T16:23:22.300Z,1021.27
2022-11-27T16:25:22.276Z,1021.31
2022-11-27T16:27:22.353Z,1021.32
2022-11-27T16:29:22.403Z,1021.31
2022-11-27T16:31:22.455Z,1021.30
2022-11-27T16:33:22.383Z,1021.30
2022-11-27T16:35:22.276Z,1021.33
2022-11-27T16:37:22.320Z,1021.33
2022-11-27T16:39:22.382Z,1021.35
2022-11-27T16:41:22.350Z,1021.35
2022-11-27T16:43:22.391Z,1021.40
2022-11-27T16:45:22.466Z,1021.39
2022-11-27T16:47:22.307Z,1021.41
2022-11-27T16:49:52.440Z,1021.41
2022-11-27T16:51:52.317Z,1021.39
2022-11-27T16:53:52.340Z,1021.47
2022-11-27T16:55:52.352Z,1021.47
2022-11-27T16:57:52.427Z,1021.33
2022-11-27T16:59:52.278Z,1021.32
2022-11-27T17:01:52.318Z,1021.34
2022-11-27T17:03:53.343Z,1021.34
2022-11-27T17:05:52.322Z,1021.43
2022-11-27T17:07:52.381Z,1021.43
2022-11-27T17:09:52.339Z,1021.43
2022-11-27T17:11:52.390Z,1021.43
2022-11-27T17:13:52.418Z,1021.43
2022-11-27T17:15:52.286Z,1021.48
2022-11-27T17:17:52.332Z,1021.43
2022-11-27T17:19:52.306Z,1021.36
2022-11-27T17:21:52.328Z,1021.32
2022-11-27T17:23:52.451Z,1021.32
2022-11-27T17:25:52.278Z,1021.33
2022-11-27T17:27:53.720Z,1021.28
2022-11-27T17:29:52.378Z,1021.28
2022-11-27T17:31:52.486Z,1021.12
2022-11-27T17:33:52.338Z,1021.12
2022-11-27T17:35:52.340Z,1020.95
2022-11-27T17:37:52.398Z,1020.85
2022-11-27T17:39:52.376Z,1020.85
2022-11-27T17:41:52.400Z,1020.85
2022-11-27T17:43:52.402Z,1020.83
2022-11-27T17:45:52.482Z,1020.83
2022-11-27T17:47:52.471Z,1020.82
2022-11-27T17:49:52.366Z,1020.83
2022-11-27T17:51:52.356Z,1020.83
2022-11-27T17:53:52.407Z,1020.75
2022-11-27T17:55:52.406Z,1020.72
2022-11-27T17:57:52.424Z,1020.59
2022-11-27T17:59:52.556Z,1020.53
2022-11-27T18:01:52.434Z,1020.53
2022-11-27T18:03:52.420Z,1020.47
2022-11-27T18:05:52.398Z,1020.42
2022-11-27T18:07:52.406Z,1020.39
2022-11-27T18:09:52.366Z,1020.39
2022-11-27T18:11:52.398Z,1020.39
2022-11-27T18:13:52.403Z,1020.41
2022-11-27T18:15:52.364Z,1020.40
2022-11-27T18:17:52.550Z,1020.36
2022-11-27T18:19:52.415Z,1020.36
2022-11-27T18:21:52.354Z,1020.37
2022-11-27T18:24:21.831Z,1020.31
2022-11-27T18:25:52.381Z,1020.27
2022-11-27T18:27:54.197Z,1020.24
2022-11-27T18:29:52.484Z,1020.24
2022-11-27T18:31:52.475Z,1020.17
2022-11-27T18:33:52.352Z,1020.14
2022-11-27T18:35:52.386Z,1020.19
2022-11-27T18:37:52.387Z,1020.19
2022-11-27T18:40:22.404Z,1020.14
2022-11-27T18:42:22.407Z,1020.14
2022-11-27T18:44:22.488Z,1020.12
2022-11-27T18:46:22.410Z,1020.12
2022-11-27T18:48:22.346Z,1020.12
2022-11-27T18:50:25.581Z,1020.08
2022-11-27T18:52:22.394Z,1020.08
2022-11-27T18:54:22.434Z,1019.99
2022-11-27T18:56:22.475Z,1020.02
2022-11-27T18:58:22.433Z,1020.02
2022-11-27T19:00:22.392Z,1019.94
2022-11-27T19:02:22.567Z,1019.84
2022-11-27T19:04:22.405Z,1019.76
2022-11-27T19:06:22.447Z,1019.76
2022-11-27T19:08:22.477Z,1019.76
2022-11-27T19:10:22.544Z,1019.55
2022-11-27T19:12:22.493Z,1019.61
2022-11-27T19:14:22.493Z,1019.63
2022-11-27T19:16:23.501Z,1019.63
2022-11-27T19:18:22.553Z,1019.61
2022-11-27T19:20:22.391Z,1019.55
2022-11-27T19:22:22.421Z,1019.45
2022-11-27T19:24:22.461Z,1019.45
2022-11-27T19:26:22.581Z,1019.45
2022-11-27T19:28:22.448Z,1019.44
2022-11-27T19:30:22.490Z,1019.49
2022-11-27T19:32:22.494Z,1019.49
2022-11-27T19:34:22.534Z,1019.42
2022-11-27T19:36:22.454Z,1019.42
2022-11-27T19:38:22.465Z,1019.42
2022-11-27T19:40:23.445Z,1019.44
2022-11-27T19:42:22.513Z,1019.41
2022-11-27T19:44:22.343Z,1019.41
2022-11-27T19:46:22.567Z,1019.27
2022-11-27T19:48:23.517Z,1019.23
2022-11-27T19:50:22.412Z,1019.15
2022-11-27T19:52:22.427Z,1019.09
2022-11-27T19:54:22.457Z,1019.09
2022-11-27T19:56:22.460Z,1019.03
2022-11-27T19:58:22.400Z,1019.01
2022-11-27T20:00:22.492Z,1018.93
2022-11-27T20:02:22.534Z,1018.88
2022-11-27T20:04:22.438Z,1018.88
2022-11-27T20:06:22.434Z,1018.79
2022-11-27T20:08:22.741Z,1018.72
2022-11-27T20:10:22.472Z,1018.73
2022-11-27T20:12:22.741Z,1018.73
2022-11-27T20:14:22.571Z,1018.73
2022-11-27T20:16:22.507Z,1018.71
2022-11-27T20:18:22.498Z,1018.65
2022-11-27T20:20:22.475Z,1018.60
2022-11-27T20:22:22.643Z,1018.60
2022-11-27T20:24:22.480Z,1018.53
2022-11-27T20:26:22.508Z,1018.56
2022-11-27T20:28:22.663Z,1018.61
2022-11-27T20:30:22.505Z,1018.56
2022-11-27T20:32:22.460Z,1018.56
2022-11-27T20:34:52.576Z,1018.55
2022-11-27T20:42:30.927Z,1018.50
2022-11-27T20:44:31.628Z,1018.52
2022-11-27T20:46:31.011Z,1018.57
2022-11-27T20:48:30.940Z,1018.50
2022-11-27T20:50:30.920Z,1018.50
2022-11-27T20:52:30.990Z,1018.51
2022-11-27T20:54:30.872Z,1018.51
2022-11-27T20:56:31.008Z,1018.55
2022-11-27T20:58:30.902Z,1018.54
2022-11-27T21:00:31.051Z,1018.54
2022-11-27T21:02:30.972Z,1018.48
2022-11-27T21:05:00.926Z,1018.49
2022-11-27T21:07:00.931Z,1018.43
2022-11-27T21:09:00.953Z,1018.42
2022-11-27T21:11:00.975Z,1018.42
2022-11-27T21:13:00.979Z,1018.42
2022-11-27T21:15:01.033Z,1018.50
2022-11-27T21:17:04.815Z,1018.54
2022-11-27T21:19:00.930Z,1018.46
2022-11-27T21:21:00.934Z,1018.35
2022-11-27T21:23:01.014Z,1018.35
2022-11-27T21:25:00.907Z,1018.32
2022-11-27T21:27:00.972Z,1018.32
2022-11-27T21:29:00.956Z,1018.27
2022-11-27T21:31:00.948Z,1018.23
2022-11-27T21:33:00.923Z,1018.23
2022-11-27T21:35:00.974Z,1018.23
2022-11-27T21:37:00.922Z,1018.00
2022-11-27T21:39:00.923Z,1018.01
2022-11-27T21:41:00.889Z,1018.01
2022-11-27T21:43:00.943Z,1018.02
2022-11-27T21:45:00.936Z,1017.94
2022-11-27T21:47:01.120Z,1017.89
2022-11-27T21:49:02.165Z,1017.78
2022-11-27T21:51:00.973Z,1017.78
2022-11-27T21:53:01.024Z,1017.84
2022-11-27T21:55:01.031Z,1017.82
2022-11-27T21:57:01.058Z,1017.74
2022-11-27T21:59:00.916Z,1017.71
2022-11-27T22:01:01.016Z,1017.71
2022-11-27T22:03:00.932Z,1017.61
2022-11-27T22:05:00.985Z,1017.53
2022-11-27T22:07:01.026Z,1017.48
2022-11-27T22:09:01.004Z,1017.48
2022-11-27T22:11:01.073Z,1017.57
2022-11-27T22:13:00.946Z,1017.56
2022-11-27T22:15:01.000Z,1017.56
2022-11-27T22:17:00.965Z,1017.57
2022-11-27T22:19:00.926Z,1017.57
2022-11-27T22:21:00.976Z,1017.53
2022-11-27T22:23:00.966Z,1017.57
2022-11-27T22:25:00.963Z,1017.62
2022-11-27T22:27:01.015Z,1017.62
2022-11-27T22:29:01.057Z,1017.62
2022-11-27T22:31:01.004Z,1017.62
2022-11-27T22:33:00.909Z,1017.63
2022-11-27T22:35:00.970Z,1017.55
2022-11-27T22:37:00.945Z,1017.55
2022-11-27T22:39:00.961Z,1017.49
2022-11-27T22:41:01.012Z,1017.54
2022-11-27T22:43:00.922Z,1017.59
2022-11-27T22:45:00.926Z,1017.54
2022-11-27T22:47:00.917Z,1017.54
2022-11-27T22:49:00.963Z,1017.52
2022-11-27T22:51:00.964Z,1017.50
2022-11-27T22:53:00.980Z,1017.51
2022-11-27T22:55:01.024Z,1017.51
2022-11-27T22:57:30.969Z,1017.51
2022-11-27T22:59:33.357Z,1017.63
2022-11-27T23:01:30.960Z,1017.66
2022-11-27T23:03:31.040Z,1017.68
2022-11-27T23:05:31.018Z,1017.64
2022-11-27T23:07:31.004Z,1017.64
2022-11-27T23:09:30.939Z,1017.68
2022-11-27T23:11:30.976Z,1017.63
2022-11-27T23:13:31.090Z,1017.51
2022-11-27T23:15:30.979Z,1017.51
2022-11-27T23:17:30.971Z,1017.50
2022-11-27T23:19:30.975Z,1017.43
2022-11-27T23:21:31.052Z,1017.34
2022-11-27T23:23:30.993Z,1017.33
2022-11-27T23:25:30.986Z,1017.33
2022-11-27T23:27:31.005Z,1017.35
2022-11-27T23:29:30.997Z,1017.27
2022-11-27T23:31:31.616Z,1017.19
2022-11-27T23:33:31.041Z,1017.13
2022-11-27T23:35:31.016Z,1017.13
2022-11-27T23:37:30.965Z,1017.13
2022-11-27T23:39:31.055Z,1016.96
2022-11-27T23:41:30.946Z,1016.93
2022-11-27T23:43:31.001Z,1016.93
2022-11-27T23:45:31.020Z,1017.01
2022-11-27T23:47:31.043Z,1017.08
2022-11-27T23:49:30.979Z,1017.09
2022-11-27T23:51:31.066Z,1017.01
2022-11-27T23:53:30.974Z,1017.01
2022-11-27T23:55:30.958Z,1017.01
2022-11-27T23:57:31.003Z,1016.91
2022-11-27T23:59:31.002Z,1016.82
